Time;durP1;ratioP1;P1;durP2;ratioP2;P2;SDS_P1;SDS_P2;PMS_P1;PMS_P2;Temp;Humidity;BMP_temperature;BMP_pressure;BME280_temperature;BME280_humidity;BME280_pressure;Samples;Min_cycle;Max_cycle;Signal;HPM_P1;HPM_P2
2022/10/17 00:01:59;;;;;;;2.72;1.88;;;;;;;;;;4965921;28;20043;-65
2022/10/17 00:04:25;;;;;;;5.80;2.03;;;;;;;;;;4962578;28;21893;-66
2022/10/17 00:06:50;;;;;;;2.60;1.98;;;;;;;;;;4965226;28;20147;-66
2022/10/17 00:09:16;;;;;;;9.20;2.03;;;;;;;;;;4965364;28;20046;-66
2022/10/17 00:11:41;;;;;;;6.97;2.10;;;;;;;;;;4965418;28;20074;-67
2022/10/17 00:14:07;;;;;;;2.38;2.00;;;;;;;;;;4964709;28;20050;-65
2022/10/17 00:16:36;;;;;;;6.43;2.00;;;;;;;;;;4963781;28;20050;-67
2022/10/17 00:19:03;;;;;;;3.13;2.22;;;;;;;;;;4965225;28;20054;-64
2022/10/17 00:21:29;;;;;;;2.50;2.10;;;;;;;;;;4964958;28;20038;-65
2022/10/17 00:23:54;;;;;;;5.13;2.50;;;;;;;;;;4965060;28;20105;-66
2022/10/17 00:26:20;;;;;;;6.25;2.17;;;;;;;;;;4962161;28;20083;-66
2022/10/17 00:28:47;;;;;;;3.05;2.17;;;;;;;;;;4963155;28;20043;-66
2022/10/17 00:31:13;;;;;;;3.88;2.08;;;;;;;;;;4965318;28;20034;-64
2022/10/17 00:33:39;;;;;;;2.92;2.35;;;;;;;;;;4964887;28;20064;-66
2022/10/17 00:36:12;;;;;;;4.90;2.28;;;;;;;;;;4962706;28;20407;-66
2022/10/17 00:38:38;;;;;;;4.15;2.38;;;;;;;;;;4960604;28;20043;-64
2022/10/17 00:41:05;;;;;;;7.68;2.78;;;;;;;;;;4963477;28;20081;-65
2022/10/17 00:44:08;;;;;;;5.00;2.67;;;;;;;;;;4964875;28;20570;-66
2022/10/17 00:46:35;;;;;;;4.00;2.67;;;;;;;;;;4928405;28;20479;-67
2022/10/17 00:49:11;;;;;;;4.20;2.70;;;;;;;;;;4964165;28;20049;-67
2022/10/17 00:51:44;;;;;;;4.32;2.05;;;;;;;;;;4964084;28;20045;-65
2022/10/17 00:54:12;;;;;;;2.80;2.30;;;;;;;;;;4961883;28;20527;-67
2022/10/17 00:56:39;;;;;;;6.63;2.42;;;;;;;;;;4964363;28;20050;-66
2022/10/17 00:59:09;;;;;;;3.03;2.35;;;;;;;;;;4964176;28;20069;-65
2022/10/17 01:01:38;;;;;;;4.10;2.35;;;;;;;;;;4975004;28;20043;-66
2022/10/17 01:04:04;;;;;;;7.00;2.83;;;;;;;;;;4964241;28;21015;-65
2022/10/17 01:06:29;;;;;;;5.85;2.55;;;;;;;;;;4963723;28;20051;-66
2022/10/17 01:08:55;;;;;;;3.40;2.35;;;;;;;;;;4962809;28;20073;-66
2022/10/17 01:11:53;;;;;;;7.00;2.55;;;;;;;;;;4960155;28;20583;-67
2022/10/17 01:14:28;;;;;;;9.07;2.50;;;;;;;;;;4963738;28;20039;-67
2022/10/17 01:17:13;;;;;;;7.68;2.70;;;;;;;;;;4954807;28;20042;-66
2022/10/17 01:20:00;;;;;;;10.90;2.70;;;;;;;;;;4959414;28;20043;-66
2022/10/17 01:22:32;;;;;;;3.10;2.50;;;;;;;;;;4960620;28;20125;-64
2022/10/17 01:25:39;;;;;;;5.80;2.35;;;;;;;;;;4961453;28;20039;-66
2022/10/17 01:28:11;;;;;;;6.90;2.50;;;;;;;;;;4962594;28;20500;-66
2022/10/17 01:30:48;;;;;;;3.97;3.22;;;;;;;;;;4972645;28;20050;-66
2022/10/17 01:33:58;;;;;;;4.45;2.25;;;;;;;;;;4963845;28;20500;-67
2022/10/17 01:36:41;;;;;;;4.70;2.33;;;;;;;;;;4940321;28;20053;-67
2022/10/17 01:39:18;;;;;;;7.32;3.30;;;;;;;;;;4963568;28;20129;-65
2022/10/17 01:42:22;;;;;;;3.88;2.58;;;;;;;;;;4961165;28;20053;-67
2022/10/17 01:44:58;;;;;;;3.72;2.67;;;;;;;;;;4928956;28;20043;-66
2022/10/17 01:47:31;;;;;;;5.10;2.50;;;;;;;;;;4962138;28;20381;-65
2022/10/17 01:50:12;;;;;;;7.05;2.80;;;;;;;;;;4955619;28;20053;-66
2022/10/17 01:52:49;;;;;;;8.05;2.70;;;;;;;;;;4929154;28;20047;-66
2022/10/17 01:55:21;;;;;;;4.53;2.30;;;;;;;;;;4962055;28;20050;-66
2022/10/17 01:57:59;;;;;;;6.25;2.40;;;;;;;;;;4962245;28;20718;-67
2022/10/17 02:00:27;;;;;;;2.65;2.42;;;;;;;;;;4961123;28;20042;-66
2022/10/17 02:02:57;;;;;;;7.07;2.60;;;;;;;;;;4962021;28;20053;-66
2022/10/17 02:05:28;;;;;;;6.20;2.33;;;;;;;;;;4960672;28;20149;-66
2022/10/17 02:07:53;;;;;;;4.10;3.05;;;;;;;;;;4961835;28;20133;-66
2022/10/17 02:10:44;;;;;;;8.95;3.08;;;;;;;;;;4961030;28;21046;-66
2022/10/17 02:13:24;;;;;;;4.47;2.53;;;;;;;;;;4961755;28;20101;-65
2022/10/17 02:16:29;;;;;;;5.10;2.63;;;;;;;;;;4960333;28;20039;-66
2022/10/17 02:19:24;;;;;;;7.22;2.70;;;;;;;;;;4949450;28;20043;-65
2022/10/17 02:22:08;;;;;;;6.43;2.50;;;;;;;;;;4962905;28;20047;-65
2022/10/17 02:24:46;;;;;;;6.80;2.85;;;;;;;;;;4962339;28;20065;-66
2022/10/17 02:27:24;;;;;;;4.43;2.60;;;;;;;;;;4960265;28;20053;-67
2022/10/17 02:30:20;;;;;;;6.40;2.45;;;;;;;;;;4962707;28;20053;-65
2022/10/17 02:33:12;;;;;;;6.50;2.67;;;;;;;;;;4945675;28;20046;-65
2022/10/17 02:35:44;;;;;;;5.20;2.60;;;;;;;;;;4962496;28;20487;-67
2022/10/17 02:38:11;;;;;;;6.35;2.20;;;;;;;;;;4975709;28;20400;-65
2022/10/17 02:40:38;;;;;;;6.07;2.50;;;;;;;;;;4961217;28;20089;-66
2022/10/17 02:43:04;;;;;;;8.05;2.80;;;;;;;;;;4961400;28;20042;-66
2022/10/17 02:45:34;;;;;;;5.00;2.63;;;;;;;;;;4960616;28;20054;-65
2022/10/17 02:48:15;;;;;;;7.05;2.90;;;;;;;;;;4960153;28;20900;-66
2022/10/17 02:51:11;;;;;;;4.50;2.63;;;;;;;;;;4959440;28;20046;-66
2022/10/17 02:53:45;;;;;;;3.15;2.60;;;;;;;;;;4921645;28;21032;-66
2022/10/17 02:56:17;;;;;;;5.85;2.60;;;;;;;;;;4961910;28;20066;-66
2022/10/17 02:58:46;;;;;;;2.92;2.45;;;;;;;;;;4961039;28;20592;-66
2022/10/17 03:01:12;;;;;;;5.70;2.75;;;;;;;;;;4961086;28;20484;-66
2022/10/17 03:03:38;;;;;;;4.60;2.40;;;;;;;;;;4960836;28;20093;-66
2022/10/17 03:06:04;;;;;;;3.10;2.40;;;;;;;;;;4960856;28;20468;-65
2022/10/17 03:08:29;;;;;;;6.53;2.78;;;;;;;;;;4961394;28;20046;-65
2022/10/17 03:10:55;;;;;;;5.72;3.28;;;;;;;;;;4950770;28;20137;-65
2022/10/17 03:13:21;;;;;;;9.30;3.70;;;;;;;;;;4960542;28;20416;-65
2022/10/17 03:15:46;;;;;;;4.00;3.30;;;;;;;;;;4949111;28;20061;-64
2022/10/17 03:18:12;;;;;;;4.63;2.90;;;;;;;;;;4960049;28;20039;-65
2022/10/17 03:20:37;;;;;;;4.30;2.33;;;;;;;;;;4959253;28;20463;-65
2022/10/17 03:23:03;;;;;;;3.33;2.65;;;;;;;;;;4960520;28;20423;-66
2022/10/17 03:25:29;;;;;;;5.57;2.50;;;;;;;;;;4961327;28;20051;-66
2022/10/17 03:27:59;;;;;;;3.28;2.70;;;;;;;;;;4962020;28;20105;-67
2022/10/17 03:30:25;;;;;;;3.72;2.67;;;;;;;;;;4957138;28;20043;-67
2022/10/17 03:32:50;;;;;;;6.00;2.90;;;;;;;;;;4960857;28;20159;-66
2022/10/17 03:35:16;;;;;;;3.13;2.42;;;;;;;;;;4960071;28;20034;-67
2022/10/17 03:37:45;;;;;;;4.25;3.03;;;;;;;;;;4960088;28;20205;-66
2022/10/17 03:40:11;;;;;;;3.50;2.80;;;;;;;;;;4956564;28;20153;-67
2022/10/17 03:42:37;;;;;;;6.90;2.90;;;;;;;;;;4960299;28;20051;-66
2022/10/17 03:45:02;;;;;;;3.95;2.70;;;;;;;;;;4959806;28;20050;-65
2022/10/17 03:47:28;;;;;;;4.03;2.92;;;;;;;;;;4943831;28;20047;-66
2022/10/17 03:49:54;;;;;;;3.35;2.78;;;;;;;;;;4943955;28;20113;-67
2022/10/17 03:52:20;;;;;;;4.22;3.00;;;;;;;;;;4959560;28;20551;-66
2022/10/17 03:54:46;;;;;;;4.22;3.00;;;;;;;;;;4959479;28;20051;-67
2022/10/17 03:57:11;;;;;;;4.15;2.60;;;;;;;;;;4959563;28;20042;-66
2022/10/17 03:59:37;;;;;;;2.97;2.67;;;;;;;;;;4959793;28;20046;-65
2022/10/17 04:02:08;;;;;;;6.32;2.78;;;;;;;;;;4959285;28;20702;-67
2022/10/17 04:04:34;;;;;;;6.05;2.72;;;;;;;;;;4958691;28;20053;-69
2022/10/17 04:07:00;;;;;;;3.03;2.63;;;;;;;;;;4959375;28;20058;-65
2022/10/17 04:09:25;;;;;;;6.20;2.80;;;;;;;;;;4959516;28;20142;-68
2022/10/17 04:11:56;;;;;;;4.43;2.92;;;;;;;;;;4959136;28;20039;-68
2022/10/17 04:14:22;;;;;;;5.50;2.50;;;;;;;;;;4959539;28;20054;-70
2022/10/17 04:16:50;;;;;;;3.90;2.83;;;;;;;;;;4958615;28;20047;-65
2022/10/17 04:19:19;;;;;;;7.80;3.00;;;;;;;;;;4955360;28;20515;-68
2022/10/17 04:21:46;;;;;;;3.78;2.88;;;;;;;;;;4958919;28;20425;-68
2022/10/17 04:24:13;;;;;;;9.25;3.30;;;;;;;;;;4958547;28;20049;-66
2022/10/17 04:26:53;;;;;;;7.53;3.13;;;;;;;;;;4958545;28;20372;-68
2022/10/17 04:29:24;;;;;;;6.80;3.00;;;;;;;;;;4962881;28;20054;-66
2022/10/17 04:31:52;;;;;;;3.88;2.88;;;;;;;;;;4963050;28;20055;-69
2022/10/17 04:34:22;;;;;;;3.95;3.08;;;;;;;;;;4963060;28;20046;-68
2022/10/17 04:36:48;;;;;;;18.45;8.68;;;;;;;;;;4964792;28;20054;-68
2022/10/17 04:39:14;;;;;;;14.68;9.85;;;;;;;;;;4962361;28;20047;-69
2022/10/17 04:41:40;;;;;;;5.07;3.80;;;;;;;;;;4962785;28;20057;-67
2022/10/17 04:44:06;;;;;;;5.95;3.40;;;;;;;;;;4963348;28;20046;-66
2022/10/17 04:46:35;;;;;;;7.82;3.20;;;;;;;;;;4962330;28;20090;-66
2022/10/17 04:49:01;;;;;;;5.40;3.05;;;;;;;;;;4946434;28;20531;-69
2022/10/17 04:51:27;;;;;;;3.50;2.63;;;;;;;;;;4963065;28;20051;-66
2022/10/17 04:54:31;;;;;;;8.10;3.28;;;;;;;;;;4948559;28;20098;-68
2022/10/17 04:57:04;;;;;;;3.22;2.75;;;;;;;;;;4963625;28;20431;-67
2022/10/17 04:59:30;;;;;;;3.10;2.80;;;;;;;;;;4961564;28;20066;-69
2022/10/17 05:02:15;;;;;;;4.15;3.00;;;;;;;;;;4964940;28;20102;-69
2022/10/17 05:04:40;;;;;;;2.80;2.60;;;;;;;;;;4956673;28;20054;-66
2022/10/17 05:07:08;;;;;;;5.88;2.85;;;;;;;;;;4964902;28;20126;-67
2022/10/17 05:09:45;;;;;;;3.20;2.65;;;;;;;;;;4955298;28;20047;-68
2022/10/17 05:12:11;;;;;;;2.80;2.47;;;;;;;;;;4953587;28;20209;-68
2022/10/17 05:14:40;;;;;;;5.57;2.80;;;;;;;;;;4962524;28;20062;-68
2022/10/17 05:17:05;;;;;;;6.38;2.72;;;;;;;;;;4961741;28;20042;-68
2022/10/17 05:19:31;;;;;;;3.08;2.58;;;;;;;;;;4961368;28;20408;-69
2022/10/17 05:21:57;;;;;;;9.85;2.80;;;;;;;;;;4960637;28;20034;-69
2022/10/17 05:24:23;;;;;;;6.10;2.78;;;;;;;;;;4961037;28;20500;-68
2022/10/17 05:26:51;;;;;;;3.30;2.72;;;;;;;;;;4961559;28;20524;-66
2022/10/17 05:29:17;;;;;;;4.57;2.80;;;;;;;;;;4948151;28;20054;-68
2022/10/17 05:31:48;;;;;;;5.40;2.70;;;;;;;;;;4962002;28;20438;-68
2022/10/17 05:34:14;;;;;;;5.25;2.70;;;;;;;;;;4959585;28;20057;-67
2022/10/17 05:36:40;;;;;;;5.97;2.88;;;;;;;;;;4960716;28;20059;-68
2022/10/17 05:39:07;;;;;;;16.20;3.22;;;;;;;;;;4960358;28;20057;-68
2022/10/17 05:41:33;;;;;;;3.58;3.03;;;;;;;;;;4961919;28;20050;-67
2022/10/17 05:43:59;;;;;;;3.22;2.78;;;;;;;;;;4958303;28;20507;-68
2022/10/17 05:46:36;;;;;;;3.38;2.97;;;;;;;;;;4961036;28;20090;-68
2022/10/17 05:49:02;;;;;;;5.72;2.88;;;;;;;;;;4963075;28;20085;-68
2022/10/17 05:51:27;;;;;;;9.82;2.92;;;;;;;;;;4961580;28;20141;-68
2022/10/17 05:53:55;;;;;;;10.32;3.10;;;;;;;;;;4961455;28;20070;-67
2022/10/17 05:56:24;;;;;;;3.25;2.80;;;;;;;;;;4960112;28;20078;-69
2022/10/17 05:58:50;;;;;;;3.65;2.95;;;;;;;;;;4961468;28;20130;-68
2022/10/17 06:01:39;;;;;;;4.60;2.88;;;;;;;;;;4955451;28;20043;-68
2022/10/17 06:04:04;;;;;;;3.95;2.75;;;;;;;;;;4959928;28;20042;-68
2022/10/17 06:06:30;;;;;;;5.15;2.92;;;;;;;;;;4957742;28;20065;-70
2022/10/17 06:08:55;;;;;;;4.70;2.90;;;;;;;;;;4961359;28;20054;-69
2022/10/17 06:11:26;;;;;;;5.53;2.80;;;;;;;;;;4959361;28;20161;-66
2022/10/17 06:13:52;;;;;;;10.60;2.97;;;;;;;;;;4959573;28;20129;-69
2022/10/17 06:16:22;;;;;;;4.00;2.88;;;;;;;;;;4959050;28;20070;-69
2022/10/17 06:18:48;;;;;;;3.75;2.70;;;;;;;;;;4962245;28;20158;-67
2022/10/17 06:21:16;;;;;;;4.32;2.63;;;;;;;;;;4961006;28;20046;-70
2022/10/17 06:23:45;;;;;;;6.03;3.03;;;;;;;;;;4961029;28;20053;-69
2022/10/17 06:26:15;;;;;;;3.40;2.83;;;;;;;;;;4960039;28;20042;-69
2022/10/17 06:28:41;;;;;;;5.50;3.08;;;;;;;;;;4957780;28;20061;-69
2022/10/17 06:31:09;;;;;;;3.90;3.10;;;;;;;;;;4960729;28;20054;-69
2022/10/17 06:33:36;;;;;;;6.30;2.90;;;;;;;;;;4962151;28;20053;-69
2022/10/17 06:36:03;;;;;;;10.95;2.83;;;;;;;;;;4959824;28;20053;-69
2022/10/17 06:38:30;;;;;;;10.85;2.90;;;;;;;;;;4956222;28;20144;-69
2022/10/17 06:41:12;;;;;;;5.60;2.60;;;;;;;;;;4961194;28;20046;-68
2022/10/17 06:43:38;;;;;;;2.88;2.67;;;;;;;;;;4961250;28;21144;-65
2022/10/17 06:46:25;;;;;;;8.57;2.90;;;;;;;;;;4961875;28;20062;-68
2022/10/17 06:48:55;;;;;;;3.72;2.50;;;;;;;;;;4962458;28;20230;-66
2022/10/17 06:51:36;;;;;;;10.65;3.25;;;;;;;;;;4960186;28;20058;-69
2022/10/17 06:54:05;;;;;;;5.90;2.60;;;;;;;;;;4960494;28;20046;-69
2022/10/17 06:57:09;;;;;;;5.28;3.08;;;;;;;;;;4938233;28;20125;-68
2022/10/17 06:59:59;;;;;;;4.45;2.80;;;;;;;;;;4960984;28;20125;-68
2022/10/17 07:02:32;;;;;;;4.57;2.70;;;;;;;;;;4943538;28;20069;-66
2022/10/17 07:04:59;;;;;;;4.90;2.50;;;;;;;;;;4960985;28;20061;-68
2022/10/17 07:07:25;;;;;;;5.57;3.10;;;;;;;;;;4962003;28;20042;-68
2022/10/17 07:09:51;;;;;;;7.18;2.50;;;;;;;;;;4960335;28;20051;-66
2022/10/17 07:12:18;;;;;;;11.25;2.67;;;;;;;;;;4957596;28;21069;-69
2022/10/17 07:14:46;;;;;;;2.88;2.67;;;;;;;;;;4957040;28;20043;-68
2022/10/17 07:17:12;;;;;;;9.32;2.65;;;;;;;;;;4958431;28;20385;-68
2022/10/17 07:19:37;;;;;;;5.68;2.50;;;;;;;;;;4958592;28;20756;-70
2022/10/17 07:22:03;;;;;;;7.20;2.47;;;;;;;;;;4948672;28;20117;-68
2022/10/17 07:24:30;;;;;;;6.03;2.50;;;;;;;;;;4951986;28;20145;-67
2022/10/17 07:27:08;;;;;;;2.90;2.60;;;;;;;;;;4954147;28;20043;-69
2022/10/17 07:29:33;;;;;;;4.18;2.70;;;;;;;;;;4956170;28;20057;-69
2022/10/17 07:32:12;;;;;;;7.60;2.42;;;;;;;;;;4957147;28;20515;-67
2022/10/17 07:34:39;;;;;;;8.70;2.60;;;;;;;;;;4959356;28;20138;-69
2022/10/17 07:37:06;;;;;;;4.63;2.17;;;;;;;;;;4958971;28;20047;-68
2022/10/17 07:39:31;;;;;;;3.83;2.42;;;;;;;;;;4951616;28;20547;-67
2022/10/17 07:41:57;;;;;;;7.18;2.67;;;;;;;;;;4951663;28;20055;-67
2022/10/17 07:44:23;;;;;;;9.38;2.83;;;;;;;;;;4957887;28;20069;-66
2022/10/17 07:46:50;;;;;;;2.88;2.28;;;;;;;;;;4959171;28;20468;-69
2022/10/17 07:49:17;;;;;;;4.50;2.50;;;;;;;;;;4952565;28;20050;-67
2022/10/17 07:51:42;;;;;;;3.30;2.60;;;;;;;;;;4951438;28;20043;-70
2022/10/17 07:54:08;;;;;;;7.15;3.00;;;;;;;;;;4960180;28;20047;-74
2022/10/17 07:56:33;;;;;;;6.20;2.20;;;;;;;;;;4959760;28;20046;-69
2022/10/17 07:58:59;;;;;;;6.00;3.05;;;;;;;;;;4960349;28;20065;-70
2022/10/17 08:01:24;;;;;;;6.05;2.95;;;;;;;;;;4958263;28;20124;-70
2022/10/17 08:03:50;;;;;;;3.33;2.60;;;;;;;;;;4963791;28;20155;-70
2022/10/17 08:06:16;;;;;;;2.80;2.33;;;;;;;;;;4963319;28;20944;-68
2022/10/17 08:08:41;;;;;;;5.63;2.72;;;;;;;;;;4965049;28;20050;-68
2022/10/17 08:11:10;;;;;;;7.15;3.20;;;;;;;;;;4965331;28;20078;-69
2022/10/17 08:13:37;;;;;;;2.88;2.42;;;;;;;;;;4965198;28;20046;-68
2022/10/17 08:16:06;;;;;;;3.58;2.60;;;;;;;;;;4964749;28;20129;-68
2022/10/17 08:18:32;;;;;;;7.63;2.97;;;;;;;;;;4963350;28;20062;-67
2022/10/17 08:20:59;;;;;;;6.00;2.50;;;;;;;;;;4964941;28;20578;-69
2022/10/17 08:23:25;;;;;;;3.97;2.40;;;;;;;;;;4963957;28;20050;-69
2022/10/17 08:25:50;;;;;;;2.83;2.42;;;;;;;;;;4962606;28;20038;-68
2022/10/17 08:28:16;;;;;;;5.07;2.80;;;;;;;;;;4963483;28;20480;-68
2022/10/17 08:30:41;;;;;;;3.38;2.65;;;;;;;;;;4962614;28;20824;-67
2022/10/17 08:33:07;;;;;;;4.22;2.60;;;;;;;;;;4963603;28;20074;-67
2022/10/17 08:35:32;;;;;;;2.33;2.17;;;;;;;;;;4963375;28;20057;-66
2022/10/17 08:38:00;;;;;;;7.18;2.55;;;;;;;;;;4962490;28;20054;-67
2022/10/17 08:40:29;;;;;;;3.50;2.80;;;;;;;;;;4962388;28;20038;-67
2022/10/17 08:43:01;;;;;;;4.22;2.35;;;;;;;;;;4962974;28;20663;-67
2022/10/17 08:45:35;;;;;;;2.35;2.15;;;;;;;;;;4964168;28;20153;-68
2022/10/17 08:48:04;;;;;;;5.72;2.40;;;;;;;;;;4964404;28;20092;-66
2022/10/17 08:50:39;;;;;;;10.30;2.53;;;;;;;;;;4961238;28;20079;-68
2022/10/17 08:53:32;;;;;;;3.58;2.55;;;;;;;;;;4964281;28;20116;-68
2022/10/17 08:56:04;;;;;;;2.53;2.33;;;;;;;;;;4956678;28;20035;-65
2022/10/17 08:58:33;;;;;;;3.35;2.78;;;;;;;;;;4963524;28;20154;-65
2022/10/17 09:01:04;;;;;;;2.95;2.40;;;;;;;;;;4958779;28;20060;-66
2022/10/17 09:03:38;;;;;;;2.78;2.50;;;;;;;;;;4963135;28;20089;-65
2022/10/17 09:06:28;;;;;;;2.72;2.33;;;;;;;;;;4957645;28;20066;-67
2022/10/17 09:09:23;;;;;;;7.55;2.58;;;;;;;;;;4957946;28;20520;-68
2022/10/17 09:12:11;;;;;;;2.50;2.30;;;;;;;;;;4963971;28;20166;-66
2022/10/17 09:14:49;;;;;;;5.32;2.47;;;;;;;;;;4961560;28;20042;-68
2022/10/17 09:17:37;;;;;;;7.40;2.30;;;;;;;;;;4961223;28;20047;-68
2022/10/17 09:20:14;;;;;;;6.28;2.70;;;;;;;;;;4963628;28;20078;-68
2022/10/17 09:22:57;;;;;;;4.35;2.75;;;;;;;;;;4963837;28;20051;-67
2022/10/17 09:25:22;;;;;;;6.80;2.50;;;;;;;;;;4962840;28;20503;-67
2022/10/17 09:28:17;;;;;;;2.60;2.15;;;;;;;;;;4963648;28;20571;-69
2022/10/17 09:30:47;;;;;;;3.03;2.10;;;;;;;;;;4944214;28;20139;-67
2022/10/17 09:33:24;;;;;;;3.17;2.30;;;;;;;;;;4963032;28;20134;-68
2022/10/17 09:35:51;;;;;;;3.08;2.40;;;;;;;;;;4960163;28;20277;-65
2022/10/17 09:38:19;;;;;;;4.78;2.85;;;;;;;;;;4963018;28;20039;-68
2022/10/17 09:40:53;;;;;;;4.70;2.38;;;;;;;;;;4961095;28;20046;-67
2022/10/17 09:43:19;;;;;;;4.80;2.42;;;;;;;;;;4963313;28;20047;-66
2022/10/17 09:46:16;;;;;;;4.25;2.60;;;;;;;;;;4962157;28;20960;-65
2022/10/17 09:49:05;;;;;;;2.63;2.38;;;;;;;;;;4960812;28;20061;-67
2022/10/17 09:51:31;;;;;;;4.60;2.58;;;;;;;;;;4963323;28;20042;-67
2022/10/17 09:54:01;;;;;;;5.13;2.67;;;;;;;;;;4963522;28;20077;-66
2022/10/17 09:56:27;;;;;;;4.57;2.40;;;;;;;;;;4961659;28;20133;-67
2022/10/17 09:58:56;;;;;;;2.33;2.13;;;;;;;;;;4962469;28;20054;-69
2022/10/17 10:01:25;;;;;;;4.55;2.30;;;;;;;;;;4962724;28;20047;-68
2022/10/17 10:04:15;;;;;;;4.20;2.50;;;;;;;;;;4962822;28;20047;-68
2022/10/17 10:07:00;;;;;;;4.55;2.55;;;;;;;;;;4955109;28;20108;-68
2022/10/17 10:09:29;;;;;;;2.60;1.92;;;;;;;;;;4961359;28;20051;-68
2022/10/17 10:11:57;;;;;;;5.00;2.60;;;;;;;;;;4962199;28;20049;-67
2022/10/17 10:14:33;;;;;;;2.67;2.40;;;;;;;;;;4962712;28;20051;-66
2022/10/17 10:17:00;;;;;;;2.97;2.30;;;;;;;;;;4963033;28;20525;-68
2022/10/17 10:19:30;;;;;;;4.25;2.55;;;;;;;;;;4962234;28;20587;-69
2022/10/17 10:22:00;;;;;;;7.15;2.53;;;;;;;;;;4962496;28;20038;-68
2022/10/17 10:24:26;;;;;;;4.72;2.70;;;;;;;;;;4962208;28;20621;-68
2022/10/17 10:26:55;;;;;;;2.53;2.33;;;;;;;;;;4962440;28;20054;-69
2022/10/17 10:29:29;;;;;;;4.30;2.20;;;;;;;;;;4960271;28;20593;-68
2022/10/17 10:31:57;;;;;;;3.95;2.30;;;;;;;;;;4958576;28;20097;-68
2022/10/17 10:34:27;;;;;;;7.95;2.47;;;;;;;;;;4961467;28;20088;-69
2022/10/17 10:37:01;;;;;;;5.15;2.47;;;;;;;;;;4961720;28;20057;-67
2022/10/17 10:39:37;;;;;;;3.55;2.50;;;;;;;;;;4962218;28;20054;-68
2022/10/17 10:42:06;;;;;;;6.63;2.40;;;;;;;;;;4961496;28;20053;-68
2022/10/17 10:44:35;;;;;;;2.97;2.40;;;;;;;;;;4961308;28;20070;-68
2022/10/17 10:47:14;;;;;;;4.93;2.60;;;;;;;;;;4960780;28;20056;-69
2022/10/17 10:49:40;;;;;;;2.60;2.28;;;;;;;;;;4959095;28;20588;-68
2022/10/17 10:52:13;;;;;;;2.40;2.20;;;;;;;;;;4961380;28;20719;-67
2022/10/17 10:54:53;;;;;;;5.35;2.60;;;;;;;;;;4961728;28;20126;-67
2022/10/17 10:57:21;;;;;;;3.25;2.33;;;;;;;;;;4962057;28;20129;-69
2022/10/17 11:00:20;;;;;;;3.50;2.40;;;;;;;;;;4961791;28;20051;-68
2022/10/17 11:03:07;;;;;;;2.30;1.90;;;;;;;;;;4957766;28;20046;-67
2022/10/17 11:05:42;;;;;;;5.18;2.05;;;;;;;;;;4961666;28;20046;-68
2022/10/17 11:08:24;;;;;;;2.10;2.00;;;;;;;;;;4959265;28;20141;-67
2022/10/17 11:10:52;;;;;;;3.05;2.08;;;;;;;;;;4958310;28;20066;-67
2022/10/17 11:13:30;;;;;;;2.25;2.05;;;;;;;;;;4961392;28;20790;-68
2022/10/17 11:16:07;;;;;;;2.55;1.90;;;;;;;;;;4961599;28;20108;-69
2022/10/17 11:18:39;;;;;;;3.15;2.30;;;;;;;;;;4961431;28;20043;-69
2022/10/17 11:21:12;;;;;;;3.20;2.13;;;;;;;;;;4957816;28;20160;-70
2022/10/17 11:23:52;;;;;;;8.95;2.55;;;;;;;;;;4961816;28;20046;-67
2022/10/17 11:26:34;;;;;;;7.43;2.17;;;;;;;;;;4960020;28;20062;-69
2022/10/17 11:29:05;;;;;;;6.90;2.20;;;;;;;;;;4961756;28;20081;-69
2022/10/17 11:31:35;;;;;;;5.30;2.00;;;;;;;;;;4961664;28;20480;-68
2022/10/17 11:34:07;;;;;;;15.10;2.40;;;;;;;;;;4961685;28;20669;-68
2022/10/17 11:36:40;;;;;;;2.53;1.80;;;;;;;;;;4951079;28;20069;-68
2022/10/17 11:39:09;;;;;;;4.22;1.85;;;;;;;;;;4957621;28;20109;-68
2022/10/17 11:41:45;;;;;;;7.93;1.83;;;;;;;;;;4958711;28;20042;-67
2022/10/17 11:44:33;;;;;;;6.38;2.10;;;;;;;;;;4955078;28;20070;-68
2022/10/17 11:47:20;;;;;;;2.35;1.90;;;;;;;;;;4960373;28;20050;-67
2022/10/17 11:50:02;;;;;;;1.90;1.80;;;;;;;;;;4960894;28;20094;-68
2022/10/17 11:52:42;;;;;;;4.70;2.05;;;;;;;;;;4960985;28;20047;-67
2022/10/17 11:55:22;;;;;;;8.38;1.65;;;;;;;;;;4959868;28;20103;-69
2022/10/17 11:57:57;;;;;;;3.97;1.90;;;;;;;;;;4960108;28;20478;-69
2022/10/17 12:01:05;;;;;;;1.95;1.70;;;;;;;;;;4952988;28;20415;-70
2022/10/17 12:04:04;;;;;;;7.50;2.13;;;;;;;;;;4961158;28;20480;-69
2022/10/17 12:06:30;;;;;;;3.67;2.10;;;;;;;;;;4914013;28;20062;-71
2022/10/17 12:09:01;;;;;;;3.45;1.85;;;;;;;;;;4961103;28;20428;-68
2022/10/17 12:11:27;;;;;;;4.68;1.75;;;;;;;;;;4958938;28;20074;-67
2022/10/17 12:13:55;;;;;;;3.17;1.90;;;;;;;;;;4961399;28;20137;-69
2022/10/17 12:16:20;;;;;;;2.75;1.80;;;;;;;;;;4960069;28;20069;-68
2022/10/17 12:19:10;;;;;;;3.70;1.75;;;;;;;;;;4961354;28;20133;-69
2022/10/17 12:22:12;;;;;;;11.90;2.03;;;;;;;;;;4950683;28;20431;-68
2022/10/17 12:24:43;;;;;;;2.70;1.75;;;;;;;;;;4960934;28;20553;-68
2022/10/17 12:27:47;;;;;;;4.45;1.92;;;;;;;;;;4952915;28;20171;-67
2022/10/17 12:30:17;;;;;;;4.80;2.05;;;;;;;;;;4971750;28;20423;-67
2022/10/17 12:32:55;;;;;;;9.88;2.38;;;;;;;;;;4958703;28;20109;-68
2022/10/17 12:35:24;;;;;;;5.90;2.05;;;;;;;;;;4958728;28;20089;-69
2022/10/17 12:37:50;;;;;;;2.15;1.85;;;;;;;;;;4958867;28;20488;-69
2022/10/17 12:40:33;;;;;;;5.50;1.77;;;;;;;;;;4958414;28;20053;-71
2022/10/17 12:42:59;;;;;;;3.08;1.77;;;;;;;;;;4930106;28;20047;-67
2022/10/17 12:45:46;;;;;;;9.05;1.70;;;;;;;;;;4958932;28;20054;-69
2022/10/17 12:48:32;;;;;;;2.17;1.80;;;;;;;;;;4958463;28;20053;-71
2022/10/17 12:51:05;;;;;;;5.32;1.75;;;;;;;;;;4952170;28;20054;-69
2022/10/17 12:53:45;;;;;;;11.30;2.20;;;;;;;;;;4961625;28;20093;-66
2022/10/17 12:56:31;;;;;;;9.35;1.98;;;;;;;;;;4962332;28;20554;-68
2022/10/17 12:58:57;;;;;;;2.05;1.75;;;;;;;;;;4948906;28;20052;-67
2022/10/17 13:01:30;;;;;;;3.95;2.10;;;;;;;;;;4960509;28;20130;-68
2022/10/17 13:03:56;;;;;;;6.05;1.77;;;;;;;;;;4962521;28;20066;-69
2022/10/17 13:06:26;;;;;;;8.05;2.05;;;;;;;;;;4958541;28;20034;-68
2022/10/17 13:08:59;;;;;;;5.88;1.60;;;;;;;;;;4961383;28;20086;-69
2022/10/17 13:11:27;;;;;;;6.18;1.48;;;;;;;;;;4964383;28;20100;-67
2022/10/17 13:13:56;;;;;;;1.60;1.50;;;;;;;;;;4963743;28;20058;-66
2022/10/17 13:16:37;;;;;;;6.22;1.85;;;;;;;;;;4962656;28;20540;-68
2022/10/17 13:19:15;;;;;;;5.37;1.90;;;;;;;;;;4963941;28;20047;-68
2022/10/17 13:22:01;;;;;;;3.28;1.63;;;;;;;;;;4963999;28;20043;-69
2022/10/17 13:24:36;;;;;;;1.90;1.55;;;;;;;;;;4962834;28;20042;-68
2022/10/17 13:27:02;;;;;;;8.55;1.48;;;;;;;;;;4960769;28;20483;-68
2022/10/17 13:29:30;;;;;;;5.13;1.70;;;;;;;;;;4962360;28;20113;-66
2022/10/17 13:32:02;;;;;;;6.88;1.65;;;;;;;;;;4962669;28;20047;-69
2022/10/17 13:34:29;;;;;;;4.38;1.80;;;;;;;;;;4963373;28;20094;-66
2022/10/17 13:36:57;;;;;;;3.35;1.60;;;;;;;;;;4961381;28;20039;-67
2022/10/17 13:39:25;;;;;;;6.00;1.92;;;;;;;;;;4964045;28;20049;-68
2022/10/17 13:41:53;;;;;;;6.15;1.50;;;;;;;;;;4959562;28;20050;-69
2022/10/17 13:44:23;;;;;;;6.70;1.65;;;;;;;;;;4961397;28;20050;-68
2022/10/17 13:46:49;;;;;;;2.30;1.58;;;;;;;;;;4960220;28;20988;-68
2022/10/17 13:49:33;;;;;;;2.20;1.60;;;;;;;;;;4960629;28;20062;-68
2022/10/17 13:52:01;;;;;;;4.07;1.75;;;;;;;;;;4962187;28;20050;-69
2022/10/17 13:54:35;;;;;;;2.38;1.50;;;;;;;;;;4962669;28;21165;-69
2022/10/17 13:57:03;;;;;;;1.70;1.60;;;;;;;;;;4957522;28;21396;-67
2022/10/17 13:59:36;;;;;;;2.38;1.73;;;;;;;;;;4959981;28;20053;-67
2022/10/17 14:02:02;;;;;;;4.47;1.35;;;;;;;;;;4961428;28;20077;-69
2022/10/17 14:04:28;;;;;;;2.05;1.55;;;;;;;;;;4959834;28;20070;-69
2022/10/17 14:06:53;;;;;;;4.75;1.65;;;;;;;;;;4961232;28;20039;-66
2022/10/17 14:09:29;;;;;;;3.88;1.80;;;;;;;;;;4958869;28;20054;-68
2022/10/17 14:12:11;;;;;;;2.17;1.83;;;;;;;;;;4952605;28;20802;-67
2022/10/17 14:14:39;;;;;;;4.10;1.65;;;;;;;;;;4960956;28;20652;-68
2022/10/17 14:17:22;;;;;;;5.78;1.95;;;;;;;;;;4961336;28;20057;-66
2022/10/17 14:19:52;;;;;;;2.78;1.67;;;;;;;;;;4962118;28;20051;-68
2022/10/17 14:22:26;;;;;;;3.78;2.22;;;;;;;;;;4959509;28;20058;-68
2022/10/17 14:24:52;;;;;;;3.63;1.60;;;;;;;;;;4961395;28;20051;-68
2022/10/17 14:27:23;;;;;;;3.00;1.88;;;;;;;;;;4959324;28;20133;-68
2022/10/17 14:29:51;;;;;;;3.30;1.88;;;;;;;;;;4961023;28;20086;-67
2022/10/17 14:32:18;;;;;;;6.03;1.75;;;;;;;;;;4959868;28;20046;-69
2022/10/17 14:34:45;;;;;;;2.65;1.60;;;;;;;;;;4961681;28;20054;-68
2022/10/17 14:37:26;;;;;;;3.75;1.90;;;;;;;;;;4959352;28;20042;-71
2022/10/17 14:39:53;;;;;;;3.60;1.85;;;;;;;;;;4961304;28;20057;-67
2022/10/17 14:42:20;;;;;;;4.22;1.92;;;;;;;;;;4958828;28;20046;-68
2022/10/17 14:44:50;;;;;;;4.50;1.70;;;;;;;;;;4961044;28;20050;-68
2022/10/17 14:47:26;;;;;;;3.75;1.65;;;;;;;;;;4960435;28;20039;-67
2022/10/17 14:50:02;;;;;;;7.55;2.10;;;;;;;;;;4961509;28;20054;-68
2022/10/17 14:52:29;;;;;;;2.42;2.22;;;;;;;;;;4958777;28;20141;-66
2022/10/17 14:54:56;;;;;;;7.35;2.60;;;;;;;;;;4961033;28;20086;-66
2022/10/17 14:57:26;;;;;;;6.38;2.60;;;;;;;;;;4960063;28;20416;-68
2022/10/17 14:59:54;;;;;;;3.40;2.65;;;;;;;;;;4960676;28;20101;-68
2022/10/17 15:02:20;;;;;;;5.13;2.90;;;;;;;;;;4960076;28;20065;-69
2022/10/17 15:04:45;;;;;;;7.32;2.97;;;;;;;;;;4960191;28;20050;-69
2022/10/17 15:07:16;;;;;;;3.67;2.58;;;;;;;;;;4957299;28;20190;-69
2022/10/17 15:09:43;;;;;;;7.10;2.97;;;;;;;;;;4960882;28;20089;-69
2022/10/17 15:12:17;;;;;;;2.83;2.25;;;;;;;;;;4959024;28;20077;-68
2022/10/17 15:14:43;;;;;;;8.45;2.80;;;;;;;;;;4957453;28;20046;-69